sensor_id;sensor_type;location;lat;lon;timestamp;temperature;humidity
65637;DHT22;52327;42.622;23.316;2023-02-21T00:01:24;6.57;55.87
65637;DHT22;52327;42.622;23.316;2023-02-21T00:04:08;6.55;56.55
65637;DHT22;52327;42.622;23.316;2023-02-21T00:06:52;6.46;56.75
65637;DHT22;52327;42.622;23.316;2023-02-21T00:09:37;6.35;57.10
65637;DHT22;52327;42.622;23.316;2023-02-21T00:12:22;6.07;58.24
65637;DHT22;52327;42.622;23.316;2023-02-21T00:15:06;5.69;59.27
65637;DHT22;52327;42.622;23.316;2023-02-21T00:17:50;5.54;60.29
65637;DHT22;52327;42.622;23.316;2023-02-21T00:20:34;5.16;61.42
65637;DHT22;52327;42.622;23.316;2023-02-21T00:23:18;5.15;61.75
65637;DHT22;52327;42.622;23.316;2023-02-21T00:26:02;5.38;60.72
65637;DHT22;52327;42.622;23.316;2023-02-21T00:28:46;5.40;61.09
65637;DHT22;52327;42.622;23.316;2023-02-21T00:31:30;5.29;61.45
65637;DHT22;52327;42.622;23.316;2023-02-21T00:34:14;5.15;61.68
65637;DHT22;52327;42.622;23.316;2023-02-21T00:36:58;5.13;61.64
65637;DHT22;52327;42.622;23.316;2023-02-21T00:39:42;5.26;61.62
65637;DHT22;52327;42.622;23.316;2023-02-21T00:42:26;5.28;61.35
65637;DHT22;52327;42.622;23.316;2023-02-21T00:45:10;5.20;62.16
65637;DHT22;52327;42.622;23.316;2023-02-21T00:47:54;4.99;62.34
65637;DHT22;52327;42.622;23.316;2023-02-21T00:50:38;4.81;63.22
65637;DHT22;52327;42.622;23.316;2023-02-21T00:53:25;4.72;63.56
65637;DHT22;52327;42.622;23.316;2023-02-21T00:56:09;4.82;63.31
65637;DHT22;52327;42.622;23.316;2023-02-21T00:58:53;4.74;63.65
65637;DHT22;52327;42.622;23.316;2023-02-21T01:01:37;4.72;63.93
65637;DHT22;52327;42.622;23.316;2023-02-21T01:04:21;4.71;63.96
65637;DHT22;52327;42.622;23.316;2023-02-21T01:07:05;4.54;64.49
65637;DHT22;52327;42.622;23.316;2023-02-21T01:09:49;4.61;64.44
65637;DHT22;52327;42.622;23.316;2023-02-21T01:12:33;4.69;64.21
65637;DHT22;52327;42.622;23.316;2023-02-21T01:15:17;4.69;64.22
65637;DHT22;52327;42.622;23.316;2023-02-21T01:18:01;4.89;63.18
65637;DHT22;52327;42.622;23.316;2023-02-21T01:20:46;4.89;63.84
65637;DHT22;52327;42.622;23.316;2023-02-21T01:23:30;4.88;63.82
65637;DHT22;52327;42.622;23.316;2023-02-21T01:26:14;4.95;63.44
65637;DHT22;52327;42.622;23.316;2023-02-21T01:28:58;4.99;63.71
65637;DHT22;52327;42.622;23.316;2023-02-21T01:31:42;4.91;63.58
65637;DHT22;52327;42.622;23.316;2023-02-21T01:34:26;4.87;63.96
65637;DHT22;52327;42.622;23.316;2023-02-21T01:37:10;4.98;63.63
65637;DHT22;52327;42.622;23.316;2023-02-21T01:39:54;4.79;63.89
65637;DHT22;52327;42.622;23.316;2023-02-21T01:42:38;4.88;64.09
65637;DHT22;52327;42.622;23.316;2023-02-21T01:48:08;5.43;61.35
65637;DHT22;52327;42.622;23.316;2023-02-21T01:50:55;5.30;61.97
65637;DHT22;52327;42.622;23.316;2023-02-21T01:53:41;5.08;62.76
65637;DHT22;52327;42.622;23.316;2023-02-21T01:56:25;4.82;63.86
65637;DHT22;52327;42.622;23.316;2023-02-21T01:59:09;4.68;64.07
65637;DHT22;52327;42.622;23.316;2023-02-21T02:05:17;4.56;64.95
65637;DHT22;52327;42.622;23.316;2023-02-21T02:08:01;4.50;64.67
65637;DHT22;52327;42.622;23.316;2023-02-21T02:10:48;4.50;65.07
65637;DHT22;52327;42.622;23.316;2023-02-21T02:14:21;4.62;64.75
65637;DHT22;52327;42.622;23.316;2023-02-21T02:16:59;4.67;64.91
65637;DHT22;52327;42.622;23.316;2023-02-21T02:35:36;4.88;63.73
65637;DHT22;52327;42.622;23.316;2023-02-21T02:40:59;4.87;63.86
65637;DHT22;52327;42.622;23.316;2023-02-21T02:46:09;4.84;64.23
65637;DHT22;52327;42.622;23.316;2023-02-21T02:48:36;4.87;64.22
65637;DHT22;52327;42.622;23.316;2023-02-21T02:51:06;4.74;63.98
65637;DHT22;52327;42.622;23.316;2023-02-21T02:53:32;4.67;64.23
65637;DHT22;52327;42.622;23.316;2023-02-21T02:56:09;4.72;64.05
65637;DHT22;52327;42.622;23.316;2023-02-21T02:58:58;4.71;64.77
65637;DHT22;52327;42.622;23.316;2023-02-21T03:06:49;4.27;65.49
65637;DHT22;52327;42.622;23.316;2023-02-21T03:12:04;4.18;66.17
65637;DHT22;52327;42.622;23.316;2023-02-21T03:14:40;4.16;66.05
65637;DHT22;52327;42.622;23.316;2023-02-21T03:17:11;4.16;66.22
65637;DHT22;52327;42.622;23.316;2023-02-21T03:19:39;4.23;65.92
65637;DHT22;52327;42.622;23.316;2023-02-21T03:22:10;4.10;66.45
65637;DHT22;52327;42.622;23.316;2023-02-21T03:24:38;4.05;66.40
65637;DHT22;52327;42.622;23.316;2023-02-21T03:27:06;4.09;66.38
65637;DHT22;52327;42.622;23.316;2023-02-21T03:29:33;4.11;66.60
65637;DHT22;52327;42.622;23.316;2023-02-21T03:32:30;4.11;66.31
65637;DHT22;52327;42.622;23.316;2023-02-21T03:34:56;4.17;65.91
65637;DHT22;52327;42.622;23.316;2023-02-21T03:37:32;4.09;66.16
65637;DHT22;52327;42.622;23.316;2023-02-21T03:39:58;3.97;66.24
65637;DHT22;52327;42.622;23.316;2023-02-21T03:42:24;3.85;66.93
65637;DHT22;52327;42.622;23.316;2023-02-21T03:44:50;3.92;66.87
65637;DHT22;52327;42.622;23.316;2023-02-21T03:47:16;3.99;66.39
65637;DHT22;52327;42.622;23.316;2023-02-21T03:49:41;4.11;66.02
65637;DHT22;52327;42.622;23.316;2023-02-21T03:52:08;4.11;65.81
65637;DHT22;52327;42.622;23.316;2023-02-21T03:54:37;4.03;66.18
65637;DHT22;52327;42.622;23.316;2023-02-21T03:57:02;4.00;66.70
65637;DHT22;52327;42.622;23.316;2023-02-21T03:59:28;4.03;66.14
65637;DHT22;52327;42.622;23.316;2023-02-21T04:01:53;4.11;65.68
65637;DHT22;52327;42.622;23.316;2023-02-21T04:04:19;4.14;65.93
65637;DHT22;52327;42.622;23.316;2023-02-21T04:06:44;4.26;64.96
65637;DHT22;52327;42.622;23.316;2023-02-21T04:09:10;4.32;65.21
65637;DHT22;52327;42.622;23.316;2023-02-21T04:11:35;4.20;65.42
65637;DHT22;52327;42.622;23.316;2023-02-21T04:14:00;4.24;65.76
65637;DHT22;52327;42.622;23.316;2023-02-21T04:16:26;4.30;65.25
65637;DHT22;52327;42.622;23.316;2023-02-21T04:18:51;4.21;65.44
65637;DHT22;52327;42.622;23.316;2023-02-21T04:21:17;4.17;65.89
65637;DHT22;52327;42.622;23.316;2023-02-21T04:23:43;4.10;66.10
65637;DHT22;52327;42.622;23.316;2023-02-21T04:26:08;4.11;65.63
65637;DHT22;52327;42.622;23.316;2023-02-21T04:28:34;4.10;65.64
65637;DHT22;52327;42.622;23.316;2023-02-21T04:30:59;4.10;66.07
65637;DHT22;52327;42.622;23.316;2023-02-21T04:33:25;3.95;66.52
65637;DHT22;52327;42.622;23.316;2023-02-21T04:35:50;3.95;66.83
65637;DHT22;52327;42.622;23.316;2023-02-21T04:38:15;3.96;66.92
65637;DHT22;52327;42.622;23.316;2023-02-21T04:40:41;4.00;66.42
65637;DHT22;52327;42.622;23.316;2023-02-21T04:43:06;4.02;66.35
65637;DHT22;52327;42.622;23.316;2023-02-21T04:45:32;4.00;66.80
65637;DHT22;52327;42.622;23.316;2023-02-21T04:47:57;3.85;66.70
65637;DHT22;52327;42.622;23.316;2023-02-21T04:50:22;3.76;67.17
65637;DHT22;52327;42.622;23.316;2023-02-21T04:52:48;3.69;67.45
65637;DHT22;52327;42.622;23.316;2023-02-21T04:55:14;3.68;67.64
65637;DHT22;52327;42.622;23.316;2023-02-21T04:57:40;3.81;67.42
65637;DHT22;52327;42.622;23.316;2023-02-21T05:00:05;3.78;67.47
65637;DHT22;52327;42.622;23.316;2023-02-21T05:02:32;3.64;67.87
65637;DHT22;52327;42.622;23.316;2023-02-21T05:04:58;3.69;67.82
65637;DHT22;52327;42.622;23.316;2023-02-21T05:07:23;3.76;68.00
65637;DHT22;52327;42.622;23.316;2023-02-21T05:09:49;4.00;66.23
65637;DHT22;52327;42.622;23.316;2023-02-21T05:12:14;4.00;66.25
65637;DHT22;52327;42.622;23.316;2023-02-21T05:14:40;4.30;64.71
65637;DHT22;52327;42.622;23.316;2023-02-21T05:17:06;5.61;59.10
65637;DHT22;52327;42.622;23.316;2023-02-21T05:19:32;6.87;54.26
65637;DHT22;52327;42.622;23.316;2023-02-21T05:21:59;7.62;52.09
65637;DHT22;52327;42.622;23.316;2023-02-21T05:24:26;8.23;49.61
65637;DHT22;52327;42.622;23.316;2023-02-21T05:26:52;8.40;49.53
65637;DHT22;52327;42.622;23.316;2023-02-21T05:29:17;8.12;52.17
65637;DHT22;52327;42.622;23.316;2023-02-21T05:31:44;7.56;53.07
65637;DHT22;52327;42.622;23.316;2023-02-21T05:34:09;7.13;54.60
65637;DHT22;52327;42.622;23.316;2023-02-21T05:36:35;6.89;55.70
65637;DHT22;52327;42.622;23.316;2023-02-21T05:39:00;6.65;56.99
65637;DHT22;52327;42.622;23.316;2023-02-21T05:41:26;6.49;57.50
65637;DHT22;52327;42.622;23.316;2023-02-21T05:43:51;5.93;59.18
65637;DHT22;52327;42.622;23.316;2023-02-21T05:46:26;5.80;59.74
65637;DHT22;52327;42.622;23.316;2023-02-21T05:48:52;5.71;59.28
65637;DHT22;52327;42.622;23.316;2023-02-21T05:51:18;5.70;59.42
65637;DHT22;52327;42.622;23.316;2023-02-21T05:53:44;5.56;60.12
65637;DHT22;52327;42.622;23.316;2023-02-21T05:56:10;5.57;60.20
65637;DHT22;52327;42.622;23.316;2023-02-21T05:58:35;5.53;60.39
65637;DHT22;52327;42.622;23.316;2023-02-21T06:01:01;5.47;60.63
65637;DHT22;52327;42.622;23.316;2023-02-21T06:03:27;5.44;61.19
65637;DHT22;52327;42.622;23.316;2023-02-21T06:05:52;5.49;61.25
65637;DHT22;52327;42.622;23.316;2023-02-21T06:08:18;5.56;60.76
65637;DHT22;52327;42.622;23.316;2023-02-21T06:10:43;5.51;60.95
65637;DHT22;52327;42.622;23.316;2023-02-21T06:13:09;5.53;61.47
65637;DHT22;52327;42.622;23.316;2023-02-21T06:15:34;5.57;61.58
65637;DHT22;52327;42.622;23.316;2023-02-21T06:18:00;5.64;61.48
65637;DHT22;52327;42.622;23.316;2023-02-21T06:20:25;5.78;61.09
65637;DHT22;52327;42.622;23.316;2023-02-21T06:22:52;5.74;61.20
65637;DHT22;52327;42.622;23.316;2023-02-21T06:25:17;5.67;61.38
65637;DHT22;52327;42.622;23.316;2023-02-21T06:27:43;5.75;61.64
65637;DHT22;52327;42.622;23.316;2023-02-21T06:30:09;5.86;60.73
65637;DHT22;52327;42.622;23.316;2023-02-21T06:32:35;5.97;60.59
65637;DHT22;52327;42.622;23.316;2023-02-21T06:35:00;6.04;60.51
65637;DHT22;52327;42.622;23.316;2023-02-21T06:37:26;5.77;60.75
65637;DHT22;52327;42.622;23.316;2023-02-21T06:39:51;5.84;61.35
65637;DHT22;52327;42.622;23.316;2023-02-21T06:42:17;5.83;60.75
65637;DHT22;52327;42.622;23.316;2023-02-21T06:44:45;5.83;61.66
65637;DHT22;52327;42.622;23.316;2023-02-21T06:47:11;5.87;61.50
65637;DHT22;52327;42.622;23.316;2023-02-21T06:49:37;6.02;61.01
65637;DHT22;52327;42.622;23.316;2023-02-21T06:52:02;6.17;60.93
65637;DHT22;52327;42.622;23.316;2023-02-21T06:54:28;6.28;60.29
65637;DHT22;52327;42.622;23.316;2023-02-21T06:56:57;6.43;59.95
65637;DHT22;52327;42.622;23.316;2023-02-21T06:59:24;6.52;59.47
65637;DHT22;52327;42.622;23.316;2023-02-21T07:01:50;6.62;59.24
65637;DHT22;52327;42.622;23.316;2023-02-21T07:04:15;6.59;59.17
65637;DHT22;52327;42.622;23.316;2023-02-21T07:06:41;6.71;59.34
65637;DHT22;52327;42.622;23.316;2023-02-21T07:09:06;6.83;58.61
65637;DHT22;52327;42.622;23.316;2023-02-21T07:11:33;6.75;58.36
65637;DHT22;52327;42.622;23.316;2023-02-21T07:13:58;6.83;58.31
65637;DHT22;52327;42.622;23.316;2023-02-21T07:16:24;6.86;58.10
65637;DHT22;52327;42.622;23.316;2023-02-21T07:18:50;7.04;57.99
65637;DHT22;52327;42.622;23.316;2023-02-21T07:21:16;7.00;58.17
65637;DHT22;52327;42.622;23.316;2023-02-21T07:23:43;7.10;57.72
65637;DHT22;52327;42.622;23.316;2023-02-21T07:26:09;7.28;57.42
65637;DHT22;52327;42.622;23.316;2023-02-21T07:28:34;7.14;57.45
65637;DHT22;52327;42.622;23.316;2023-02-21T07:31:00;7.18;57.67
65637;DHT22;52327;42.622;23.316;2023-02-21T07:33:26;7.27;57.61
65637;DHT22;52327;42.622;23.316;2023-02-21T07:35:51;7.17;57.75
65637;DHT22;52327;42.622;23.316;2023-02-21T07:38:25;7.21;57.92
65637;DHT22;52327;42.622;23.316;2023-02-21T07:40:54;7.21;58.14
65637;DHT22;52327;42.622;23.316;2023-02-21T07:43:19;7.30;57.65
65637;DHT22;52327;42.622;23.316;2023-02-21T07:45:45;7.43;56.93
65637;DHT22;52327;42.622;23.316;2023-02-21T07:48:10;7.32;57.02
65637;DHT22;52327;42.622;23.316;2023-02-21T07:50:42;7.32;57.25
65637;DHT22;52327;42.622;23.316;2023-02-21T07:53:08;7.28;57.14
65637;DHT22;52327;42.622;23.316;2023-02-21T07:55:34;7.18;57.21
65637;DHT22;52327;42.622;23.316;2023-02-21T07:57:59;7.20;57.65
65637;DHT22;52327;42.622;23.316;2023-02-21T08:00:25;7.27;57.30
65637;DHT22;52327;42.622;23.316;2023-02-21T08:02:51;7.23;57.88
65637;DHT22;52327;42.622;23.316;2023-02-21T08:05:19;7.28;57.68
65637;DHT22;52327;42.622;23.316;2023-02-21T08:07:46;7.30;57.55
65637;DHT22;52327;42.622;23.316;2023-02-21T08:10:18;7.32;57.09
65637;DHT22;52327;42.622;23.316;2023-02-21T08:12:44;7.35;57.62
65637;DHT22;52327;42.622;23.316;2023-02-21T08:15:09;7.43;57.32
65637;DHT22;52327;42.622;23.316;2023-02-21T08:17:35;7.38;57.89
65637;DHT22;52327;42.622;23.316;2023-02-21T08:20:00;7.35;57.78
65637;DHT22;52327;42.622;23.316;2023-02-21T08:22:26;7.40;57.90
65637;DHT22;52327;42.622;23.316;2023-02-21T08:24:51;7.48;57.91
65637;DHT22;52327;42.622;23.316;2023-02-21T08:27:17;7.55;57.94
65637;DHT22;52327;42.622;23.316;2023-02-21T08:29:43;7.65;57.34
65637;DHT22;52327;42.622;23.316;2023-02-21T08:32:08;7.72;57.17
65637;DHT22;52327;42.622;23.316;2023-02-21T08:34:34;7.85;56.36
65637;DHT22;52327;42.622;23.316;2023-02-21T08:36:59;7.86;56.59
65637;DHT22;52327;42.622;23.316;2023-02-21T08:39:25;7.90;56.91
65637;DHT22;52327;42.622;23.316;2023-02-21T08:41:54;8.03;56.43
65637;DHT22;52327;42.622;23.316;2023-02-21T08:44:21;8.23;55.67
65637;DHT22;52327;42.622;23.316;2023-02-21T08:46:46;8.34;55.43
65637;DHT22;52327;42.622;23.316;2023-02-21T08:49:12;8.41;55.00
65637;DHT22;52327;42.622;23.316;2023-02-21T08:51:38;8.60;54.65
65637;DHT22;52327;42.622;23.316;2023-02-21T08:54:04;8.65;55.19
65637;DHT22;52327;42.622;23.316;2023-02-21T08:56:30;8.61;54.66
65637;DHT22;52327;42.622;23.316;2023-02-21T08:58:56;8.53;55.32
65637;DHT22;52327;42.622;23.316;2023-02-21T09:01:23;8.63;55.52
65637;DHT22;52327;42.622;23.316;2023-02-21T09:03:49;8.68;55.66
65637;DHT22;52327;42.622;23.316;2023-02-21T09:06:15;8.68;54.83
65637;DHT22;52327;42.622;23.316;2023-02-21T09:08:41;8.68;54.85
65637;DHT22;52327;42.622;23.316;2023-02-21T09:11:07;8.70;54.95
65637;DHT22;52327;42.622;23.316;2023-02-21T09:13:33;8.78;54.06
65637;DHT22;52327;42.622;23.316;2023-02-21T09:16:00;8.85;54.10
65637;DHT22;52327;42.622;23.316;2023-02-21T09:18:26;8.91;53.96
65637;DHT22;52327;42.622;23.316;2023-02-21T09:20:52;8.95;53.76
65637;DHT22;52327;42.622;23.316;2023-02-21T09:23:22;8.98;54.11
65637;DHT22;52327;42.622;23.316;2023-02-21T09:25:48;9.08;53.80
65637;DHT22;52327;42.622;23.316;2023-02-21T09:28:14;9.08;54.07
65637;DHT22;52327;42.622;23.316;2023-02-21T09:30:40;8.99;54.28
65637;DHT22;52327;42.622;23.316;2023-02-21T09:33:06;9.05;54.31
65637;DHT22;52327;42.622;23.316;2023-02-21T09:35:32;9.05;54.24
65637;DHT22;52327;42.622;23.316;2023-02-21T09:37:58;9.15;53.70
65637;DHT22;52327;42.622;23.316;2023-02-21T09:40:47;9.16;53.54
65637;DHT22;52327;42.622;23.316;2023-02-21T09:43:27;9.40;52.73
65637;DHT22;52327;42.622;23.316;2023-02-21T09:45:57;9.54;51.86
65637;DHT22;52327;42.622;23.316;2023-02-21T09:48:25;9.66;51.52
65637;DHT22;52327;42.622;23.316;2023-02-21T09:50:55;9.70;51.80
65637;DHT22;52327;42.622;23.316;2023-02-21T09:53:25;9.86;51.91
65637;DHT22;52327;42.622;23.316;2023-02-21T09:55:55;9.98;51.64
65637;DHT22;52327;42.622;23.316;2023-02-21T09:58:22;10.10;51.45
65637;DHT22;52327;42.622;23.316;2023-02-21T10:00:47;10.32;51.11
65637;DHT22;52327;42.622;23.316;2023-02-21T10:03:30;10.35;50.24
65637;DHT22;52327;42.622;23.316;2023-02-21T10:06:36;10.55;48.45
65637;DHT22;52327;42.622;23.316;2023-02-21T10:09:42;10.69;47.65
65637;DHT22;52327;42.622;23.316;2023-02-21T10:12:27;10.86;47.48
65637;DHT22;52327;42.622;23.316;2023-02-21T10:17:30;11.13;46.17
65637;DHT22;52327;42.622;23.316;2023-02-21T10:20:03;11.31;44.77
65637;DHT22;52327;42.622;23.316;2023-02-21T10:22:37;11.54;44.99
65637;DHT22;52327;42.622;23.316;2023-02-21T10:25:23;11.67;45.28
65637;DHT22;52327;42.622;23.316;2023-02-21T10:27:51;11.84;43.50
65637;DHT22;52327;42.622;23.316;2023-02-21T10:30:31;12.06;43.51
65637;DHT22;52327;42.622;23.316;2023-02-21T10:32:57;12.35;42.08
65637;DHT22;52327;42.622;23.316;2023-02-21T10:35:22;12.37;40.19
65637;DHT22;52327;42.622;23.316;2023-02-21T10:37:56;12.43;38.29
65637;DHT22;52327;42.622;23.316;2023-02-21T10:40:31;12.72;32.03
65637;DHT22;52327;42.622;23.316;2023-02-21T10:43:25;13.10;30.23
65637;DHT22;52327;42.622;23.316;2023-02-21T10:46:43;13.61;30.72
65637;DHT22;52327;42.622;23.316;2023-02-21T10:48:52;13.75;30.12
65637;DHT22;52327;42.622;23.316;2023-02-21T10:51:31;13.95;29.46
65637;DHT22;52327;42.622;23.316;2023-02-21T10:54:20;13.95;30.22
65637;DHT22;52327;42.622;23.316;2023-02-21T10:56:51;14.03;30.05
65637;DHT22;52327;42.622;23.316;2023-02-21T10:59:32;13.89;29.73
65637;DHT22;52327;42.622;23.316;2023-02-21T11:02:00;14.02;30.00
65637;DHT22;52327;42.622;23.316;2023-02-21T11:04:32;14.17;30.77
65637;DHT22;52327;42.622;23.316;2023-02-21T11:07:05;14.09;30.24
65637;DHT22;52327;42.622;23.316;2023-02-21T11:09:44;14.29;29.94
65637;DHT22;52327;42.622;23.316;2023-02-21T11:12:17;14.27;30.07
65637;DHT22;52327;42.622;23.316;2023-02-21T11:15:01;14.44;30.47
65637;DHT22;52327;42.622;23.316;2023-02-21T11:17:29;14.48;29.57
65637;DHT22;52327;42.622;23.316;2023-02-21T11:20:02;14.36;29.68
65637;DHT22;52327;42.622;23.316;2023-02-21T11:22:40;14.59;30.67
65637;DHT22;52327;42.622;23.316;2023-02-21T11:25:23;14.74;29.84
65637;DHT22;52327;42.622;23.316;2023-02-21T11:30:29;14.75;29.65
65637;DHT22;52327;42.622;23.316;2023-02-21T11:32:57;14.61;30.46
65637;DHT22;52327;42.622;23.316;2023-02-21T11:35:25;14.77;30.35
65637;DHT22;52327;42.622;23.316;2023-02-21T11:40:29;14.98;29.32
65637;DHT22;52327;42.622;23.316;2023-02-21T11:43:24;15.05;29.51
65637;DHT22;52327;42.622;23.316;2023-02-21T11:46:01;15.28;29.03
65637;DHT22;52327;42.622;23.316;2023-02-21T11:48:32;15.39;29.17
65637;DHT22;52327;42.622;23.316;2023-02-21T11:51:03;15.33;29.24
65637;DHT22;52327;42.622;23.316;2023-02-21T11:53:36;15.52;29.46
65637;DHT22;52327;42.622;23.316;2023-02-21T11:56:10;15.64;29.68
65637;DHT22;52327;42.622;23.316;2023-02-21T11:59:00;15.46;29.35
65637;DHT22;52327;42.622;23.316;2023-02-21T12:04:46;15.71;29.72
65637;DHT22;52327;42.622;23.316;2023-02-21T12:07:22;15.91;29.35
65637;DHT22;52327;42.622;23.316;2023-02-21T12:10:30;15.77;29.01
65637;DHT22;52327;42.622;23.316;2023-02-21T12:18:59;15.93;29.20
65637;DHT22;52327;42.622;23.316;2023-02-21T12:27:14;15.80;29.90
65637;DHT22;52327;42.622;23.316;2023-02-21T12:38:08;15.67;30.00
65637;DHT22;52327;42.622;23.316;2023-02-21T12:40:51;15.93;28.67
65637;DHT22;52327;42.622;23.316;2023-02-21T12:43:41;16.03;28.69
65637;DHT22;52327;42.622;23.316;2023-02-21T12:49:01;16.22;28.92
65637;DHT22;52327;42.622;23.316;2023-02-21T12:51:32;16.29;28.90
65637;DHT22;52327;42.622;23.316;2023-02-21T12:54:03;16.42;28.29
65637;DHT22;52327;42.622;23.316;2023-02-21T12:56:35;17.03;28.02
65637;DHT22;52327;42.622;23.316;2023-02-21T12:59:07;17.98;25.63
65637;DHT22;52327;42.622;23.316;2023-02-21T13:01:40;17.27;26.63
65637;DHT22;52327;42.622;23.316;2023-02-21T13:09:47;16.61;28.49
65637;DHT22;52327;42.622;23.316;2023-02-21T13:12:24;16.47;27.45
65637;DHT22;52327;42.622;23.316;2023-02-21T13:15:19;16.59;27.93
65637;DHT22;52327;42.622;23.316;2023-02-21T13:18:36;16.40;28.34
65637;DHT22;52327;42.622;23.316;2023-02-21T13:20:46;16.51;28.21
65637;DHT22;52327;42.622;23.316;2023-02-21T13:23:45;16.55;27.89
65637;DHT22;52327;42.622;23.316;2023-02-21T13:28:57;16.62;27.25
65637;DHT22;52327;42.622;23.316;2023-02-21T13:31:33;16.61;27.96
65637;DHT22;52327;42.622;23.316;2023-02-21T13:34:07;16.54;28.72
65637;DHT22;52327;42.622;23.316;2023-02-21T13:36:44;16.51;28.93
65637;DHT22;52327;42.622;23.316;2023-02-21T13:39:16;17.09;27.87
65637;DHT22;52327;42.622;23.316;2023-02-21T13:41:47;17.24;27.63
65637;DHT22;52327;42.622;23.316;2023-02-21T13:44:34;17.20;27.23
65637;DHT22;52327;42.622;23.316;2023-02-21T13:47:09;17.22;27.17
65637;DHT22;52327;42.622;23.316;2023-02-21T13:49:56;17.22;27.18
65637;DHT22;52327;42.622;23.316;2023-02-21T13:52:36;16.95;26.99
65637;DHT22;52327;42.622;23.316;2023-02-21T14:03:14;16.79;28.01
65637;DHT22;52327;42.622;23.316;2023-02-21T14:11:21;17.34;27.59
65637;DHT22;52327;42.622;23.316;2023-02-21T14:14:26;21.42;23.86
65637;DHT22;52327;42.622;23.316;2023-02-21T14:16:57;23.94;20.97
65637;DHT22;52327;42.622;23.316;2023-02-21T14:24:37;22.20;22.27
65637;DHT22;52327;42.622;23.316;2023-02-21T14:32:31;17.58;29.95
65637;DHT22;52327;42.622;23.316;2023-02-21T14:34:58;17.00;31.60
65637;DHT22;52327;42.622;23.316;2023-02-21T14:37:31;16.28;31.65
65637;DHT22;52327;42.622;23.316;2023-02-21T14:40:00;15.64;32.14
65637;DHT22;52327;42.622;23.316;2023-02-21T14:45:26;14.80;32.68
65637;DHT22;52327;42.622;23.316;2023-02-21T14:51:25;14.54;33.70
65637;DHT22;52327;42.622;23.316;2023-02-21T15:00:27;13.66;38.19
65637;DHT22;52327;42.622;23.316;2023-02-21T15:02:47;13.35;39.35
65637;DHT22;52327;42.622;23.316;2023-02-21T15:08:17;13.12;40.87
65637;DHT22;52327;42.622;23.316;2023-02-21T15:10:47;13.00;41.35
65637;DHT22;52327;42.622;23.316;2023-02-21T15:13:30;12.79;40.34
65637;DHT22;52327;42.622;23.316;2023-02-21T15:16:10;12.79;41.25
65637;DHT22;52327;42.622;23.316;2023-02-21T15:18:54;12.66;41.13
65637;DHT22;52327;42.622;23.316;2023-02-21T15:21:21;12.64;40.68
65637;DHT22;52327;42.622;23.316;2023-02-21T15:23:58;12.66;41.31
65637;DHT22;52327;42.622;23.316;2023-02-21T15:26:26;12.47;41.91
65637;DHT22;52327;42.622;23.316;2023-02-21T15:34:04;12.22;42.09
65637;DHT22;52327;42.622;23.316;2023-02-21T15:36:31;12.06;42.99
65637;DHT22;52327;42.622;23.316;2023-02-21T15:41:37;11.77;43.42
65637;DHT22;52327;42.622;23.316;2023-02-21T15:44:09;11.67;43.08
65637;DHT22;52327;42.622;23.316;2023-02-21T15:46:53;11.47;44.02
65637;DHT22;52327;42.622;23.316;2023-02-21T15:49:28;11.41;44.45
65637;DHT22;52327;42.622;23.316;2023-02-21T15:51:54;11.33;44.38
65637;DHT22;52327;42.622;23.316;2023-02-21T15:54:24;11.26;44.52
65637;DHT22;52327;42.622;23.316;2023-02-21T15:59:27;11.14;44.92
65637;DHT22;52327;42.622;23.316;2023-02-21T16:04:38;10.92;44.90
65637;DHT22;52327;42.622;23.316;2023-02-21T16:07:06;10.91;44.52
65637;DHT22;52327;42.622;23.316;2023-02-21T16:09:33;10.80;44.67
65637;DHT22;52327;42.622;23.316;2023-02-21T16:12:04;10.68;44.40
65637;DHT22;52327;42.622;23.316;2023-02-21T16:14:40;10.61;45.14
65637;DHT22;52327;42.622;23.316;2023-02-21T16:17:26;10.58;45.17
65637;DHT22;52327;42.622;23.316;2023-02-21T16:19:55;10.44;44.52
65637;DHT22;52327;42.622;23.316;2023-02-21T16:22:34;10.42;45.03
65637;DHT22;52327;42.622;23.316;2023-02-21T16:25:26;10.34;43.69
65637;DHT22;52327;42.622;23.316;2023-02-21T16:27:57;10.25;44.26
65637;DHT22;52327;42.622;23.316;2023-02-21T16:30:29;10.22;43.44
65637;DHT22;52327;42.622;23.316;2023-02-21T16:33:03;10.15;42.18
65637;DHT22;52327;42.622;23.316;2023-02-21T16:35:30;10.31;41.72
65637;DHT22;52327;42.622;23.316;2023-02-21T16:37:57;10.41;39.27
65637;DHT22;52327;42.622;23.316;2023-02-21T16:40:34;10.44;41.64
65637;DHT22;52327;42.622;23.316;2023-02-21T16:43:01;10.41;40.21
65637;DHT22;52327;42.622;23.316;2023-02-21T16:45:27;10.49;38.69
65637;DHT22;52327;42.622;23.316;2023-02-21T16:47:59;10.63;38.84
65637;DHT22;52327;42.622;23.316;2023-02-21T16:50:32;10.69;38.10
65637;DHT22;52327;42.622;23.316;2023-02-21T16:52:59;10.86;37.55
65637;DHT22;52327;42.622;23.316;2023-02-21T16:55:25;10.89;38.18
65637;DHT22;52327;42.622;23.316;2023-02-21T16:57:54;10.82;37.54
65637;DHT22;52327;42.622;23.316;2023-02-21T17:00:22;10.82;37.70
65637;DHT22;52327;42.622;23.316;2023-02-21T17:02:48;10.83;37.24
65637;DHT22;52327;42.622;23.316;2023-02-21T17:05:15;10.89;37.19
65637;DHT22;52327;42.622;23.316;2023-02-21T17:07:40;11.09;36.26
65637;DHT22;52327;42.622;23.316;2023-02-21T17:10:06;11.12;36.23
65637;DHT22;52327;42.622;23.316;2023-02-21T17:12:32;11.12;36.77
65637;DHT22;52327;42.622;23.316;2023-02-21T17:14:57;11.09;35.96
65637;DHT22;52327;42.622;23.316;2023-02-21T17:17:22;11.16;36.83
65637;DHT22;52327;42.622;23.316;2023-02-21T17:19:48;11.10;36.73
65637;DHT22;52327;42.622;23.316;2023-02-21T17:22:13;11.06;36.78
65637;DHT22;52327;42.622;23.316;2023-02-21T17:24:40;10.95;37.38
65637;DHT22;52327;42.622;23.316;2023-02-21T17:27:06;10.89;39.01
65637;DHT22;52327;42.622;23.316;2023-02-21T17:29:31;10.68;38.95
65637;DHT22;52327;42.622;23.316;2023-02-21T17:31:57;10.62;39.43
65637;DHT22;52327;42.622;23.316;2023-02-21T17:34:23;10.62;37.77
65637;DHT22;52327;42.622;23.316;2023-02-21T17:36:52;10.66;38.18
65637;DHT22;52327;42.622;23.316;2023-02-21T17:39:19;10.61;40.24
65637;DHT22;52327;42.622;23.316;2023-02-21T17:41:49;10.58;40.74
65637;DHT22;52327;42.622;23.316;2023-02-21T17:44:14;10.48;39.26
65637;DHT22;52327;42.622;23.316;2023-02-21T17:46:47;10.46;38.22
65637;DHT22;52327;42.622;23.316;2023-02-21T17:49:15;10.45;40.31
65637;DHT22;52327;42.622;23.316;2023-02-21T17:51:40;10.44;39.09
65637;DHT22;52327;42.622;23.316;2023-02-21T17:54:06;10.45;39.16
65637;DHT22;52327;42.622;23.316;2023-02-21T17:56:31;10.49;39.38
65637;DHT22;52327;42.622;23.316;2023-02-21T17:58:57;10.51;39.33
65637;DHT22;52327;42.622;23.316;2023-02-21T18:01:23;10.58;39.10
65637;DHT22;52327;42.622;23.316;2023-02-21T18:03:50;10.51;40.77
65637;DHT22;52327;42.622;23.316;2023-02-21T18:06:16;10.37;38.97